Time;durP1;ratioP1;P1;durP2;ratioP2;P2;SDS_P1;SDS_P2;PMS_P1;PMS_P2;Temp;Humidity;BMP_temperature;BMP_pressure;BME280_temperature;BME280_humidity;BME280_pressure;Samples;Min_cycle;Max_cycle;Signal;HPM_P1;HPM_P2
2023/06/19 00:02:09;;;;;;;22.63;18.20;;;;;;;;;;6059692;23;20030;-46
2023/06/19 00:04:36;;;;;;;21.38;17.75;;;;;;;;;;6061329;23;20030;-45
2023/06/19 00:07:10;;;;;;;24.33;19.65;;;;;;;;;;6058991;23;20465;-59
2023/06/19 00:09:37;;;;;;;22.13;18.85;;;;;;;;;;6059585;23;20078;-44
2023/06/19 00:12:11;;;;;;;23.50;19.33;;;;;;;;;;6059694;23;20026;-53
2023/06/19 00:14:39;;;;;;;27.60;19.60;;;;;;;;;;6059627;23;20027;-57
2023/06/19 00:17:06;;;;;;;23.00;19.60;;;;;;;;;;6059715;23;20082;-54
2023/06/19 00:19:40;;;;;;;24.95;19.52;;;;;;;;;;6060200;23;20027;-54
2023/06/19 00:22:07;;;;;;;25.20;20.65;;;;;;;;;;6069379;23;20029;-53
2023/06/19 00:24:41;;;;;;;23.60;18.42;;;;;;;;;;6117393;23;20026;-53
2023/06/19 00:27:09;;;;;;;23.70;19.25;;;;;;;;;;6117957;23;20419;-53
2023/06/19 00:29:36;;;;;;;26.92;18.17;;;;;;;;;;6117072;23;20563;-53
2023/06/19 00:32:09;;;;;;;22.02;17.38;;;;;;;;;;6117043;23;20025;-56
2023/06/19 00:34:37;;;;;;;23.55;18.73;;;;;;;;;;6117230;23;20030;-56
2023/06/19 00:37:13;;;;;;;26.75;19.23;;;;;;;;;;6116131;23;20080;-54
2023/06/19 00:39:40;;;;;;;26.80;19.52;;;;;;;;;;6117061;23;20539;-53
2023/06/19 00:42:14;;;;;;;24.20;18.48;;;;;;;;;;6117236;23;20062;-56
2023/06/19 00:44:43;;;;;;;23.83;18.45;;;;;;;;;;6119064;23;20030;-61
2023/06/19 00:47:10;;;;;;;21.20;17.33;;;;;;;;;;6117217;23;20026;-62
2023/06/19 00:49:44;;;;;;;20.23;16.70;;;;;;;;;;6117237;23;20130;-61
2023/06/19 00:52:11;;;;;;;28.10;19.65;;;;;;;;;;6117284;23;20412;-61
2023/06/19 00:54:45;;;;;;;20.60;17.42;;;;;;;;;;6117468;23;20089;-57
2023/06/19 00:57:12;;;;;;;24.63;19.00;;;;;;;;;;6115825;23;20072;-49
2023/06/19 00:59:40;;;;;;;24.23;19.20;;;;;;;;;;6116756;23;20080;-48
2023/06/19 01:02:13;;;;;;;24.88;19.48;;;;;;;;;;6112463;23;20075;-45
2023/06/19 01:04:41;;;;;;;27.58;20.70;;;;;;;;;;6117497;23;20030;-47
2023/06/19 01:07:15;;;;;;;23.55;18.15;;;;;;;;;;6115885;23;20097;-49
2023/06/19 01:09:47;;;;;;;24.05;18.02;;;;;;;;;;6118477;23;20026;-50
2023/06/19 01:12:28;;;;;;;27.08;19.77;;;;;;;;;;6111129;23;20033;-60
2023/06/19 01:15:06;;;;;;;22.17;17.70;;;;;;;;;;6111153;23;20538;-59
2023/06/19 01:17:33;;;;;;;22.27;17.52;;;;;;;;;;6112482;23;20022;-58
2023/06/19 01:20:10;;;;;;;23.65;18.38;;;;;;;;;;6114607;23;21005;-57
2023/06/19 01:22:38;;;;;;;25.67;19.77;;;;;;;;;;6111437;23;20056;-59
2023/06/19 01:25:19;;;;;;;23.73;18.65;;;;;;;;;;6110782;23;20026;-59
2023/06/19 01:27:47;;;;;;;25.65;19.73;;;;;;;;;;6114230;23;20076;-60
2023/06/19 01:30:20;;;;;;;25.48;19.15;;;;;;;;;;6113379;23;20037;-53
2023/06/19 01:32:57;;;;;;;22.38;19.33;;;;;;;;;;6117972;23;20029;-44
2023/06/19 01:35:28;;;;;;;29.02;19.30;;;;;;;;;;6116886;23;20021;-45
2023/06/19 01:38:02;;;;;;;25.85;20.20;;;;;;;;;;6116435;23;20080;-44
2023/06/19 01:40:31;;;;;;;24.45;20.17;;;;;;;;;;6116620;23;20357;-43
2023/06/19 01:43:00;;;;;;;29.08;21.23;;;;;;;;;;6118207;23;20073;-43
2023/06/19 01:45:34;;;;;;;28.77;21.13;;;;;;;;;;6115902;23;20029;-44
2023/06/19 01:48:02;;;;;;;23.00;18.92;;;;;;;;;;6116326;23;20403;-48
2023/06/19 01:50:35;;;;;;;24.40;19.20;;;;;;;;;;6117603;23;20025;-60
2023/06/19 01:53:03;;;;;;;27.60;19.55;;;;;;;;;;6116353;23;20026;-61
2023/06/19 01:55:30;;;;;;;22.23;18.23;;;;;;;;;;6115760;23;20021;-61
2023/06/19 01:58:03;;;;;;;25.05;18.52;;;;;;;;;;6117181;23;20408;-61
2023/06/19 02:00:35;;;;;;;22.55;18.25;;;;;;;;;;6116472;23;20099;-60
2023/06/19 02:03:08;;;;;;;21.73;17.75;;;;;;;;;;6117191;23;20022;-61
2023/06/19 02:05:39;;;;;;;21.45;18.38;;;;;;;;;;6117568;23;20029;-61
2023/06/19 02:08:06;;;;;;;25.42;20.42;;;;;;;;;;6116149;23;20025;-62
2023/06/19 02:10:40;;;;;;;22.10;17.95;;;;;;;;;;6115823;23;20029;-61
2023/06/19 02:13:07;;;;;;;23.38;17.77;;;;;;;;;;6117396;23;20030;-62
2023/06/19 02:15:35;;;;;;;25.98;19.85;;;;;;;;;;6116570;23;20025;-61
2023/06/19 02:18:09;;;;;;;29.02;20.42;;;;;;;;;;6119375;23;20531;-56
2023/06/19 02:20:36;;;;;;;;;;;;;;;;;;6118566;23;20026;-59
2023/06/19 02:23:16;;;;;;;23.80;18.98;;;;;;;;;;6133970;23;19972;-60
2023/06/19 02:25:43;;;;;;;19.33;17.20;;;;;;;;;;6088541;23;20460;-60
2023/06/19 02:28:17;;;;;;;26.40;18.80;;;;;;;;;;6090264;23;20400;-59
2023/06/19 02:30:45;;;;;;;20.30;16.55;;;;;;;;;;6089425;23;20030;-60
2023/06/19 02:33:13;;;;;;;24.45;18.42;;;;;;;;;;6089406;23;20089;-60
2023/06/19 02:35:46;;;;;;;23.55;19.10;;;;;;;;;;6086499;23;20035;-55
2023/06/19 02:38:14;;;;;;;23.75;18.08;;;;;;;;;;6089966;23;20027;-58
2023/06/19 02:40:48;;;;;;;27.65;18.95;;;;;;;;;;6090165;23;20034;-46
2023/06/19 02:43:16;;;;;;;26.45;19.60;;;;;;;;;;6086683;23;20026;-51
2023/06/19 02:45:43;;;;;;;24.40;19.35;;;;;;;;;;6111271;23;20018;-48
2023/06/19 02:48:17;;;;;;;23.05;18.40;;;;;;;;;;6085585;23;20030;-50
2023/06/19 02:50:45;;;;;;;29.33;20.35;;;;;;;;;;6089450;23;20034;-49
2023/06/19 02:53:18;;;;;;;24.95;19.40;;;;;;;;;;6088717;23;20086;-47
2023/06/19 02:55:46;;;;;;;24.60;19.50;;;;;;;;;;6088886;23;20090;-45
2023/06/19 02:58:13;;;;;;;26.80;20.15;;;;;;;;;;6087832;23;20077;-61
2023/06/19 03:00:46;;;;;;;24.23;19.35;;;;;;;;;;6090071;23;20027;-62
2023/06/19 03:03:14;;;;;;;31.17;20.67;;;;;;;;;;6089881;23;20356;-60
2023/06/19 03:05:48;;;;;;;27.52;20.90;;;;;;;;;;6088790;23;20376;-62
2023/06/19 03:08:15;;;;;;;32.35;22.15;;;;;;;;;;6089142;23;20062;-61
2023/06/19 03:10:42;;;;;;;29.35;21.38;;;;;;;;;;6088473;23;20023;-61
2023/06/19 03:13:17;;;;;;;29.80;21.25;;;;;;;;;;6088897;23;20022;-60
2023/06/19 03:15:44;;;;;;;27.83;20.45;;;;;;;;;;6089266;23;20026;-47
2023/06/19 03:18:12;;;;;;;27.10;20.15;;;;;;;;;;6087355;23;20109;-45
2023/06/19 03:20:46;;;;;;;28.95;20.35;;;;;;;;;;6088041;23;20026;-44
2023/06/19 03:23:14;;;;;;;25.30;19.83;;;;;;;;;;6100630;23;20022;-46
2023/06/19 03:25:54;;;;;;;24.92;18.15;;;;;;;;;;6119414;23;20022;-47
2023/06/19 03:28:21;;;;;;;26.27;19.02;;;;;;;;;;6117032;23;20080;-46
2023/06/19 03:30:55;;;;;;;20.02;16.83;;;;;;;;;;6118443;23;20022;-45
2023/06/19 03:33:29;;;;;;;72.72;22.73;;;;;;;;;;6118263;23;20348;-58
2023/06/19 03:36:04;;;;;;;28.65;19.27;;;;;;;;;;6117429;23;20084;-55
2023/06/19 03:38:31;;;;;;;22.00;17.85;;;;;;;;;;6118549;23;20048;-54
2023/06/19 03:40:58;;;;;;;27.92;20.80;;;;;;;;;;6118398;23;20050;-55
2023/06/19 03:43:31;;;;;;;24.88;19.60;;;;;;;;;;6118524;23;20033;-51
2023/06/19 03:45:59;;;;;;;25.30;18.38;;;;;;;;;;6118715;23;20026;-56
2023/06/19 03:48:26;;;;;;;83.72;17.45;;;;;;;;;;6118672;23;20026;-52
2023/06/19 03:51:00;;;;;;;154.68;18.15;;;;;;;;;;6118736;23;20026;-48
2023/06/19 03:53:27;;;;;;;20.30;16.42;;;;;;;;;;6119149;23;20026;-51
2023/06/19 03:56:01;;;;;;;21.45;16.60;;;;;;;;;;6118096;23;20034;-49
2023/06/19 03:58:29;;;;;;;19.35;14.68;;;;;;;;;;6118269;23;20022;-47
2023/06/19 04:00:56;;;;;;;20.25;15.48;;;;;;;;;;6117331;23;20029;-61
2023/06/19 04:03:30;;;;;;;16.88;13.40;;;;;;;;;;6110096;23;20038;-50
2023/06/19 04:05:57;;;;;;;15.30;12.20;;;;;;;;;;6117879;23;20040;-48
2023/06/19 04:08:30;;;;;;;14.32;11.20;;;;;;;;;;6113269;23;20457;-53
2023/06/19 04:10:58;;;;;;;12.65;11.35;;;;;;;;;;6113791;23;20029;-50
2023/06/19 04:13:25;;;;;;;14.40;11.43;;;;;;;;;;6116062;23;20026;-51
2023/06/19 04:15:59;;;;;;;13.20;10.52;;;;;;;;;;6118918;23;20029;-45
2023/06/19 04:18:27;;;;;;;17.50;11.13;;;;;;;;;;6116375;23;20605;-57
2023/06/19 04:21:02;;;;;;;15.52;12.48;;;;;;;;;;6117035;23;20092;-59
2023/06/19 04:23:42;;;;;;;14.45;11.93;;;;;;;;;;6114925;23;20403;-59
2023/06/19 04:26:17;;;;;;;13.77;12.27;;;;;;;;;;6116015;23;20096;-60
2023/06/19 04:28:51;;;;;;;13.38;11.98;;;;;;;;;;6116677;23;20030;-59
2023/06/19 04:31:19;;;;;;;12.45;11.07;;;;;;;;;;6116643;23;20041;-59
2023/06/19 04:33:46;;;;;;;13.25;11.43;;;;;;;;;;6114248;23;20476;-59
2023/06/19 04:36:20;;;;;;;12.95;9.88;;;;;;;;;;6087990;23;20030;-56
2023/06/19 04:38:48;;;;;;;13.10;11.50;;;;;;;;;;6115718;23;20030;-61
2023/06/19 04:41:21;;;;;;;13.45;11.35;;;;;;;;;;6113491;23;20080;-54
2023/06/19 04:43:49;;;;;;;14.27;11.50;;;;;;;;;;6114009;23;20085;-57
2023/06/19 04:46:20;;;;;;;14.00;12.43;;;;;;;;;;6114910;23;20077;-55
2023/06/19 04:48:54;;;;;;;14.18;12.25;;;;;;;;;;6116302;23;20073;-55
2023/06/19 04:51:21;;;;;;;16.10;11.60;;;;;;;;;;6111672;23;20026;-56
2023/06/19 04:53:56;;;;;;;16.50;12.30;;;;;;;;;;6116458;23;20077;-57
2023/06/19 04:56:23;;;;;;;14.25;11.30;;;;;;;;;;6112358;23;20030;-55
2023/06/19 04:58:51;;;;;;;15.40;11.57;;;;;;;;;;6117469;23;20089;-62
2023/06/19 05:01:27;;;;;;;12.75;9.60;;;;;;;;;;6117011;23;20030;-62
2023/06/19 05:03:56;;;;;;;11.00;9.43;;;;;;;;;;6116744;23;20022;-62
2023/06/19 05:06:30;;;;;;;11.98;10.02;;;;;;;;;;6113752;23;20093;-62
2023/06/19 05:08:57;;;;;;;11.98;9.95;;;;;;;;;;6115609;23;20469;-62
2023/06/19 05:11:24;;;;;;;11.50;9.73;;;;;;;;;;6116229;23;20025;-62
2023/06/19 05:13:58;;;;;;;11.43;9.13;;;;;;;;;;6119113;23;20072;-60
2023/06/19 05:16:25;;;;;;;11.15;8.07;;;;;;;;;;6117091;23;20535;-59
2023/06/19 05:19:05;;;;;;;9.23;7.95;;;;;;;;;;6118045;23;20022;-60
2023/06/19 05:21:33;;;;;;;8.98;7.97;;;;;;;;;;6119398;23;20029;-59
2023/06/19 05:24:14;;;;;;;9.88;8.27;;;;;;;;;;6114232;23;20030;-60
2023/06/19 05:26:42;;;;;;;10.38;7.60;;;;;;;;;;6115645;23;20085;-57
2023/06/19 05:29:15;;;;;;;13.20;8.30;;;;;;;;;;6117932;23;20453;-57
2023/06/19 05:31:43;;;;;;;9.85;8.23;;;;;;;;;;6118304;23;20026;-59
2023/06/19 05:34:10;;;;;;;10.27;8.20;;;;;;;;;;6117677;23;20026;-59
2023/06/19 05:36:50;;;;;;;11.18;8.48;;;;;;;;;;6118815;23;20026;-58
2023/06/19 05:39:18;;;;;;;11.98;9.00;;;;;;;;;;6117207;23;20571;-57
2023/06/19 05:41:52;;;;;;;10.00;8.38;;;;;;;;;;6117646;23;20485;-49
2023/06/19 05:44:20;;;;;;;12.55;9.20;;;;;;;;;;6117400;23;20108;-47
2023/06/19 05:46:47;;;;;;;11.02;8.70;;;;;;;;;;6116449;23;20468;-51
2023/06/19 05:49:21;;;;;;;12.52;10.32;;;;;;;;;;6111451;23;20461;-47
2023/06/19 05:51:48;;;;;;;13.95;11.40;;;;;;;;;;6117480;23;20460;-47
2023/06/19 05:54:23;;;;;;;15.15;11.88;;;;;;;;;;6117516;23;20101;-48
2023/06/19 05:56:50;;;;;;;18.20;12.65;;;;;;;;;;6115846;23;20055;-49
2023/06/19 05:59:17;;;;;;;;;;;;;;;;;;6117765;23;20080;-46
2023/06/19 06:01:52;;;;;;;18.17;13.07;;;;;;;;;;6114486;23;20205;-51
2023/06/19 06:04:21;;;;;;;18.10;13.85;;;;;;;;;;6114990;23;20600;-52
2023/06/19 06:06:56;;;;;;;19.42;14.70;;;;;;;;;;6118100;23;20029;-46
2023/06/19 06:09:23;;;;;;;20.02;15.43;;;;;;;;;;6116934;23;20022;-59
2023/06/19 06:11:50;;;;;;;21.13;16.05;;;;;;;;;;6118163;23;20029;-59
2023/06/19 06:14:24;;;;;;;18.73;15.10;;;;;;;;;;6117560;23;20081;-59
2023/06/19 06:16:51;;;;;;;19.88;13.88;;;;;;;;;;6117217;23;20357;-60
2023/06/19 06:19:25;;;;;;;22.30;14.35;;;;;;;;;;6118611;23;20030;-59
2023/06/19 06:21:53;;;;;;;18.70;14.00;;;;;;;;;;6116977;23;20093;-60
2023/06/19 06:24:20;;;;;;;23.52;13.63;;;;;;;;;;6114927;23;20120;-46
2023/06/19 06:27:00;;;;;;;16.25;12.40;;;;;;;;;;6117830;23;20061;-44
2023/06/19 06:29:28;;;;;;;14.95;11.68;;;;;;;;;;6118840;23;20026;-46
2023/06/19 06:32:05;;;;;;;14.23;11.98;;;;;;;;;;6118182;23;20077;-46
2023/06/19 06:34:33;;;;;;;15.07;12.18;;;;;;;;;;6119094;23;20034;-43
2023/06/19 06:37:00;;;;;;;;;;;;;;;;;;6116613;23;20030;-44
2023/06/19 06:39:35;;;;;;;14.95;11.85;;;;;;;;;;6117812;23;20327;-47
2023/06/19 06:42:02;;;;;;;15.25;12.38;;;;;;;;;;6117291;23;20101;-52
2023/06/19 06:44:29;;;;;;;13.27;11.60;;;;;;;;;;6118317;23;20509;-48
2023/06/19 06:47:03;;;;;;;17.20;12.27;;;;;;;;;;6117524;23;20040;-47
2023/06/19 06:49:30;;;;;;;12.82;11.48;;;;;;;;;;6118403;23;20018;-56
2023/06/19 06:52:06;;;;;;;13.13;10.93;;;;;;;;;;6116934;23;20026;-45
2023/06/19 06:54:33;;;;;;;13.73;11.75;;;;;;;;;;6116739;23;20022;-46
2023/06/19 06:57:01;;;;;;;16.55;12.00;;;;;;;;;;6117541;23;20475;-45
2023/06/19 06:59:34;;;;;;;14.88;11.57;;;;;;;;;;6118897;23;20022;-46
2023/06/19 07:02:02;;;;;;;18.23;11.50;;;;;;;;;;6119128;23;20030;-45
2023/06/19 07:04:29;;;;;;;12.93;11.43;;;;;;;;;;6119712;23;20468;-48
2023/06/19 07:07:04;;;;;;;16.27;12.27;;;;;;;;;;6118332;23;20030;-57
2023/06/19 07:09:31;;;;;;;18.15;12.50;;;;;;;;;;6118097;23;20078;-54
2023/06/19 07:12:06;;;;;;;15.07;12.55;;;;;;;;;;6120116;23;20080;-57
2023/06/19 07:14:34;;;;;;;15.45;12.70;;;;;;;;;;6115869;23;20022;-58
2023/06/19 07:17:01;;;;;;;16.08;13.18;;;;;;;;;;6119380;23;20033;-56
2023/06/19 07:19:36;;;;;;;16.05;12.45;;;;;;;;;;6119896;23;20076;-48
2023/06/19 07:22:03;;;;;;;14.60;13.10;;;;;;;;;;6118168;23;20026;-47
2023/06/19 07:24:43;;;;;;;21.05;13.50;;;;;;;;;;6115291;23;20101;-45
2023/06/19 07:27:10;;;;;;;17.42;13.65;;;;;;;;;;6119030;23;20428;-44
2023/06/19 07:29:45;;;;;;;16.40;14.25;;;;;;;;;;6117950;23;20491;-45
2023/06/19 07:32:12;;;;;;;;;;;;;;;;;;6118720;23;20728;-43
2023/06/19 07:34:39;;;;;;;19.88;14.60;;;;;;;;;;6117910;23;19917;-44
2023/06/19 07:37:17;;;;;;;18.58;15.15;;;;;;;;;;6117871;23;20021;-43
2023/06/19 07:39:45;;;;;;;18.90;15.85;;;;;;;;;;6117843;23;20084;-45
2023/06/19 07:42:19;;;;;;;19.08;16.05;;;;;;;;;;6115729;23;20026;-46
2023/06/19 07:44:46;;;;;;;18.38;16.17;;;;;;;;;;6117604;23;20077;-56
2023/06/19 07:47:15;;;;;;;17.73;15.85;;;;;;;;;;6119802;23;20084;-43
2023/06/19 07:49:50;;;;;;;21.42;14.75;;;;;;;;;;6119480;23;20037;-44
2023/06/19 07:52:17;;;;;;;20.10;15.35;;;;;;;;;;6117104;23;20464;-43
2023/06/19 07:54:54;;;;;;;17.45;15.32;;;;;;;;;;6118230;23;20018;-46
2023/06/19 07:57:22;;;;;;;15.98;14.18;;;;;;;;;;6119389;23;20031;-44
2023/06/19 07:59:50;;;;;;;17.35;15.55;;;;;;;;;;6118497;23;20037;-47
2023/06/19 08:02:23;;;;;;;21.48;16.23;;;;;;;;;;6118786;23;20025;-46
2023/06/19 08:04:51;;;;;;;;;;;;;;;;;;6120017;23;20461;-52
2023/06/19 08:07:25;;;;;;;16.88;15.18;;;;;;;;;;6113197;23;20099;-56
2023/06/19 08:09:52;;;;;;;22.00;16.27;;;;;;;;;;6119385;23;20033;-50
2023/06/19 08:12:30;;;;;;;;;;;;;;;;;;6120274;23;20475;-51
2023/06/19 08:15:04;;;;;;;19.02;16.40;;;;;;;;;;6117060;23;19975;-59
2023/06/19 08:17:31;;;;;;;19.30;17.17;;;;;;;;;;6115448;23;20081;-46
2023/06/19 08:19:58;;;;;;;20.15;15.80;;;;;;;;;;6119958;23;20022;-52
2023/06/19 08:22:32;;;;;;;17.67;15.88;;;;;;;;;;6094047;23;20483;-47
2023/06/19 08:25:05;;;;;;;18.27;15.93;;;;;;;;;;6116555;23;20025;-49
2023/06/19 08:27:40;;;;;;;18.60;16.25;;;;;;;;;;6118067;23;20021;-46
2023/06/19 08:30:07;;;;;;;17.00;15.20;;;;;;;;;;6117592;23;20026;-47
2023/06/19 08:32:35;;;;;;;16.48;14.88;;;;;;;;;;6119443;23;20153;-54
2023/06/19 08:35:09;;;;;;;18.05;15.07;;;;;;;;;;6117486;23;20025;-53
2023/06/19 08:37:36;;;;;;;20.77;15.25;;;;;;;;;;6118631;23;20432;-54
2023/06/19 08:40:10;;;;;;;15.98;14.38;;;;;;;;;;6118717;23;20029;-52
2023/06/19 08:42:38;;;;;;;18.98;15.77;;;;;;;;;;6115310;23;20028;-50
2023/06/19 08:45:07;;;;;;;16.58;14.88;;;;;;;;;;6118819;23;20080;-52
2023/06/19 08:47:41;;;;;;;16.25;14.65;;;;;;;;;;6115071;23;20018;-50
2023/06/19 08:50:08;;;;;;;;;;;;;;;;;;6119664;23;20018;-52
2023/06/19 08:52:42;;;;;;;15.82;14.20;;;;;;;;;;6118201;23;19964;-54
2023/06/19 08:55:10;;;;;;;15.32;13.23;;;;;;;;;;6118731;23;20127;-54
2023/06/19 08:57:40;;;;;;;14.20;12.75;;;;;;;;;;6117973;23;20027;-49
2023/06/19 09:00:23;;;;;;;14.65;13.15;;;;;;;;;;6118580;23;20020;-56
2023/06/19 09:02:51;;;;;;;16.70;12.75;;;;;;;;;;6119809;23;20028;-56
2023/06/19 09:05:39;;;;;;;;;;;;;;;;;;6118550;23;20133;-54
2023/06/19 09:08:13;;;;;;;14.98;12.95;;;;;;;;;;6117656;23;19956;-53
2023/06/19 09:11:00;;;;;;;17.00;15.27;;;;;;;;;;6118707;23;20029;-44
2023/06/19 09:13:31;;;;;;;16.70;15.00;;;;;;;;;;6117190;23;20396;-45
2023/06/19 09:16:06;;;;;;;17.80;14.27;;;;;;;;;;6093358;23;20486;-43
2023/06/19 09:18:46;;;;;;;15.45;13.93;;;;;;;;;;6119777;23;20104;-43
2023/06/19 09:21:24;;;;;;;16.42;13.35;;;;;;;;;;6118225;23;20029;-48
2023/06/19 09:24:05;;;;;;;13.57;11.90;;;;;;;;;;6087432;23;20029;-44
2023/06/19 09:26:46;;;;;;;16.67;13.43;;;;;;;;;;6089118;23;20465;-44
2023/06/19 09:29:18;;;;;;;15.00;12.95;;;;;;;;;;6089826;23;20022;-53
2023/06/19 09:31:53;;;;;;;13.95;11.98;;;;;;;;;;6088476;23;20075;-55
2023/06/19 09:34:20;;;;;;;;;;;;;;;;;;6090397;23;20026;-52
2023/06/19 09:36:54;;;;;;;9.38;8.48;;;;;;;;;;6088772;23;19980;-56
2023/06/19 09:39:22;;;;;;;13.85;9.80;;;;;;;;;;6087881;23;20078;-47
2023/06/19 09:41:59;;;;;;;10.32;9.32;;;;;;;;;;6088330;23;20026;-57
2023/06/19 09:44:27;;;;;;;11.77;10.68;;;;;;;;;;6088593;23;20586;-56
2023/06/19 09:46:55;;;;;;;23.27;8.48;;;;;;;;;;6088558;23;20026;-57
2023/06/19 09:49:32;;;;;;;10.23;9.18;;;;;;;;;;6089072;23;20022;-57
2023/06/19 09:51:59;;;;;;;11.35;10.25;;;;;;;;;;6088463;23;20026;-59
2023/06/19 09:54:34;;;;;;;10.73;9.65;;;;;;;;;;6088668;23;20019;-58
2023/06/19 09:57:02;;;;;;;9.90;8.90;;;;;;;;;;6088465;23;20523;-53
2023/06/19 09:59:38;;;;;;;11.07;9.82;;;;;;;;;;6088223;23;20029;-49
2023/06/19 10:02:06;;;;;;;14.57;11.65;;;;;;;;;;6088795;23;20026;-51
2023/06/19 10:04:46;;;;;;;13.02;11.52;;;;;;;;;;6089438;23;20069;-52
2023/06/19 10:07:21;;;;;;;13.45;12.15;;;;;;;;;;6089998;23;20019;-43
2023/06/19 10:10:06;;;;;;;14.55;13.15;;;;;;;;;;6087645;23;20496;-58
2023/06/19 10:12:37;;;;;;;14.60;13.07;;;;;;;;;;6088836;23;20027;-48
2023/06/19 10:15:11;;;;;;;15.33;13.83;;;;;;;;;;6088889;23;20026;-45
2023/06/19 10:17:38;;;;;;;;;;;;;;;;;;6089946;23;20077;-49
2023/06/19 10:20:13;;;;;;;14.38;12.88;;;;;;;;;;6087742;23;20263;-48
2023/06/19 10:22:59;;;;;;;14.90;13.50;;;;;;;;;;6089933;23;20081;-52
2023/06/19 10:25:33;;;;;;;13.43;12.02;;;;;;;;;;6056991;23;20059;-43
2023/06/19 10:28:21;;;;;;;13.43;11.70;;;;;;;;;;6059105;23;20074;-45
2023/06/19 10:30:55;;;;;;;13.40;12.10;;;;;;;;;;6058670;23;20022;-44
2023/06/19 10:33:32;;;;;;;14.10;12.10;;;;;;;;;;6060569;23;20053;-42
2023/06/19 10:36:06;;;;;;;14.48;13.07;;;;;;;;;;6059797;23;20023;-46
2023/06/19 10:38:46;;;;;;;12.93;11.55;;;;;;;;;;6061744;23;20466;-50
2023/06/19 10:41:24;;;;;;;16.15;12.02;;;;;;;;;;6060806;23;20082;-53
2023/06/19 10:43:59;;;;;;;10.85;9.75;;;;;;;;;;6061879;23;20062;-49
2023/06/19 10:46:26;;;;;;;;;;;;;;;;;;6062089;23;20082;-55
2023/06/19 10:49:04;;;;;;;11.40;9.93;;;;;;;;;;6060909;23;19965;-54
2023/06/19 10:51:34;;;;;;;11.55;10.35;;;;;;;;;;6061620;23;20086;-54
2023/06/19 10:54:08;;;;;;;14.05;10.27;;;;;;;;;;6061966;23;20459;-59
2023/06/19 10:56:35;;;;;;;11.60;10.18;;;;;;;;;;6060877;23;20031;-58
2023/06/19 10:59:12;;;;;;;12.73;11.13;;;;;;;;;;6061250;23;20023;-56
2023/06/19 11:01:46;;;;;;;11.75;10.55;;;;;;;;;;6061784;23;20746;-57
2023/06/19 11:04:15;;;;;;;11.65;10.45;;;;;;;;;;6061627;23;20684;-47
2023/06/19 11:06:49;;;;;;;11.13;9.93;;;;;;;;;;6062761;23;20086;-57
2023/06/19 11:09:17;;;;;;;10.85;9.80;;;;;;;;;;6062361;23;20078;-48
2023/06/19 11:11:44;;;;;;;;;;;;;;;;;;6061466;23;20034;-50
2023/06/19 11:14:18;;;;;;;11.88;10.65;;;;;;;;;;6062087;23;19918;-50
2023/06/19 11:16:45;;;;;;;;;;;;;;;;;;6062867;23;20027;-50
2023/06/19 11:19:19;;;;;;;11.77;10.60;;;;;;;;;;6059817;23;20184;-51
2023/06/19 11:21:54;;;;;;;12.20;10.90;;;;;;;;;;6062214;23;20085;-50
2023/06/19 11:24:28;;;;;;;12.48;9.95;;;;;;;;;;6094456;23;20029;-65
2023/06/19 11:27:10;;;;;;;10.57;9.57;;;;;;;;;;6119137;23;20025;-65
2023/06/19 11:29:37;;;;;;;10.98;9.88;;;;;;;;;;6119149;23;20356;-65
2023/06/19 11:32:15;;;;;;;11.20;9.52;;;;;;;;;;6118827;23;20085;-64
2023/06/19 11:34:44;;;;;;;11.88;10.23;;;;;;;;;;6116316;23;20515;-51
2023/06/19 11:37:15;;;;;;;11.27;10.15;;;;;;;;;;6120304;23;20053;-53
2023/06/19 11:39:50;;;;;;;11.32;10.32;;;;;;;;;;6116108;23;20404;-51
2023/06/19 11:42:17;;;;;;;12.00;10.02;;;;;;;;;;6116104;23;20026;-48
2023/06/19 11:45:02;;;;;;;10.80;9.77;;;;;;;;;;6120071;23;20026;-53
2023/06/19 11:47:33;;;;;;;11.63;10.45;;;;;;;;;;6121108;23;20028;-51
2023/06/19 11:50:07;;;;;;;13.25;10.98;;;;;;;;;;6118962;23;20049;-47
2023/06/19 11:52:35;;;;;;;11.40;10.30;;;;;;;;;;6119413;23;20029;-59
2023/06/19 11:55:02;;;;;;;;;;;;;;;;;;6119539;23;20345;-59
2023/06/19 11:57:36;;;;;;;12.30;11.07;;;;;;;;;;6118665;23;19921;-58
2023/06/19 12:00:08;;;;;;;12.73;11.18;;;;;;;;;;6117503;23;20030;-57
2023/06/19 12:02:44;;;;;;;12.48;11.18;;;;;;;;;;6120659;23;20036;-47
2023/06/19 12:05:18;;;;;;;13.80;10.68;;;;;;;;;;6119647;23;20093;-46
2023/06/19 12:07:45;;;;;;;;;;;;;;;;;;6115901;23;20029;-44
2023/06/19 12:10:19;;;;;;;11.25;10.05;;;;;;;;;;6118684;23;19917;-46
2023/06/19 12:12:46;;;;;;;11.13;10.00;;;;;;;;;;6115233;23;20026;-45
2023/06/19 12:15:13;;;;;;;11.88;10.15;;;;;;;;;;6115607;23;20022;-46
2023/06/19 12:17:47;;;;;;;12.75;9.90;;;;;;;;;;6119700;23;20026;-46
2023/06/19 12:20:14;;;;;;;11.38;10.18;;;;;;;;;;6120392;23;20030;-54
2023/06/19 12:22:49;;;;;;;11.68;10.32;;;;;;;;;;6118336;23;20026;-55
2023/06/19 12:25:16;;;;;;;;;;;;;;;;;;6116617;23;20853;-54
2023/06/19 12:27:51;;;;;;;12.15;10.90;;;;;;;;;;6119340;23;19941;-53
2023/06/19 12:30:25;;;;;;;10.95;9.77;;;;;;;;;;6118461;23;20539;-49
2023/06/19 12:32:52;;;;;;;11.57;10.45;;;;;;;;;;6118861;23;20061;-44
2023/06/19 12:35:27;;;;;;;11.90;10.40;;;;;;;;;;6094212;23;20356;-45
2023/06/19 12:37:54;;;;;;;13.18;10.85;;;;;;;;;;6116902;23;20587;-45
2023/06/19 12:40:22;;;;;;;11.15;9.95;;;;;;;;;;6118113;23;20030;-46
2023/06/19 12:42:55;;;;;;;10.63;9.63;;;;;;;;;;6119428;23;20025;-43
2023/06/19 12:45:23;;;;;;;11.57;10.23;;;;;;;;;;6117193;23;20081;-46
2023/06/19 12:47:57;;;;;;;11.82;10.40;;;;;;;;;;6118997;23;20680;-58
2023/06/19 12:50:24;;;;;;;11.43;10.32;;;;;;;;;;6118502;23;20022;-58
2023/06/19 12:52:52;;;;;;;13.40;10.65;;;;;;;;;;6118281;23;20579;-57
2023/06/19 12:55:26;;;;;;;12.13;10.38;;;;;;;;;;6117197;23;20032;-60
2023/06/19 12:57:53;;;;;;;;;;;;;;;;;;6120760;23;20025;-48
2023/06/19 13:00:27;;;;;;;11.73;10.45;;;;;;;;;;6118273;23;19924;-47
2023/06/19 13:02:54;;;;;;;10.70;9.63;;;;;;;;;;6118463;23;20037;-48
2023/06/19 13:05:21;;;;;;;10.95;9.85;;;;;;;;;;6118002;23;20822;-48
2023/06/19 13:07:55;;;;;;;11.18;10.07;;;;;;;;;;6118344;23;20030;-46
2023/06/19 13:10:22;;;;;;;;;;;;;;;;;;6118042;23;20389;-46
2023/06/19 13:12:58;;;;;;;10.60;9.50;;;;;;;;;;6119277;23;19921;-43
2023/06/19 13:15:25;;;;;;;10.05;9.02;;;;;;;;;;6117334;23;20022;-48
2023/06/19 13:17:52;;;;;;;;;;;;;;;;;;6119927;23;20034;-48
2023/06/19 13:20:26;;;;;;;10.48;9.38;;;;;;;;;;6115746;23;19917;-46
2023/06/19 13:22:53;;;;;;;;;;;;;;;;;;6119104;23;20025;-51
2023/06/19 13:25:20;;;;;;;9.80;8.85;;;;;;;;;;6111892;23;19917;-46
2023/06/19 13:27:55;;;;;;;11.23;9.57;;;;;;;;;;6119449;23;20029;-45
2023/06/19 13:30:22;;;;;;;;;;;;;;;;;;6115228;23;20101;-64
2023/06/19 13:32:56;;;;;;;9.73;8.82;;;;;;;;;;6115232;23;19920;-65
2023/06/19 13:35:23;;;;;;;;;;;;;;;;;;6118055;23;20025;-64
2023/06/19 13:37:50;;;;;;;10.43;9.43;;;;;;;;;;6115427;23;19916;-64
2023/06/19 13:40:24;;;;;;;10.25;9.25;;;;;;;;;;6115884;23;20519;-65
2023/06/19 13:42:51;;;;;;;10.05;9.13;;;;;;;;;;6118416;23;20514;-65
2023/06/19 13:45:26;;;;;;;11.18;9.20;;;;;;;;;;6118747;23;20092;-50
2023/06/19 13:47:53;;;;;;;;;;;;;;;;;;6118349;23;20021;-50
2023/06/19 13:50:20;;;;;;;10.43;9.05;;;;;;;;;;6117653;23;20002;-53
2023/06/19 13:52:54;;;;;;;17.50;8.93;;;;;;;;;;6118296;23;20030;-51
2023/06/19 13:55:22;;;;;;;11.10;8.98;;;;;;;;;;6117207;23;20044;-56
2023/06/19 13:57:57;;;;;;;16.10;9.85;;;;;;;;;;6113714;23;20026;-49
2023/06/19 14:00:24;;;;;;;12.27;9.38;;;;;;;;;;6114095;23;20093;-44
2023/06/19 14:02:51;;;;;;;10.10;9.20;;;;;;;;;;6117749;23;20030;-48
2023/06/19 14:05:26;;;;;;;10.13;8.93;;;;;;;;;;6116441;23;20624;-51
2023/06/19 14:07:53;;;;;;;10.57;9.57;;;;;;;;;;6118498;23;20090;-49
2023/06/19 14:10:28;;;;;;;10.73;9.13;;;;;;;;;;6112337;23;20085;-49
2023/06/19 14:12:55;;;;;;;;;;;;;;;;;;6119894;23;20061;-50
2023/06/19 14:15:22;;;;;;;9.82;8.82;;;;;;;;;;6119655;23;19925;-46
2023/06/19 14:17:56;;;;;;;11.02;8.55;;;;;;;;;;6118694;23;20084;-55
2023/06/19 14:20:23;;;;;;;8.55;7.63;;;;;;;;;;6116549;23;20021;-58
2023/06/19 14:22:57;;;;;;;17.30;9.25;;;;;;;;;;6118722;23;20021;-55
2023/06/19 14:25:31;;;;;;;8.70;7.88;;;;;;;;;;6117364;23;20393;-55
2023/06/19 14:28:15;;;;;;;10.07;8.35;;;;;;;;;;6119619;23;20029;-57
2023/06/19 14:30:43;;;;;;;9.93;8.30;;;;;;;;;;6115153;23;20026;-57
2023/06/19 14:33:17;;;;;;;9.80;8.48;;;;;;;;;;6119786;23;20026;-56
2023/06/19 14:35:45;;;;;;;9.57;8.68;;;;;;;;;;6120494;23;20033;-54
2023/06/19 14:38:16;;;;;;;9.45;8.60;;;;;;;;;;6119324;23;20026;-57
2023/06/19 14:40:50;;;;;;;9.95;8.95;;;;;;;;;;6120365;23;20025;-57
2023/06/19 14:43:17;;;;;;;10.40;8.50;;;;;;;;;;6116142;23;20026;-49
2023/06/19 14:45:51;;;;;;;9.27;8.35;;;;;;;;;;6118938;23;20081;-60
2023/06/19 14:48:18;;;;;;;;;;;;;;;;;;6120680;23;20025;-59
2023/06/19 14:50:45;;;;;;;8.90;8.00;;;;;;;;;;6118586;23;19951;-59
2023/06/19 14:53:19;;;;;;;9.32;7.95;;;;;;;;;;6118985;23;20030;-59